Time;durP1;ratioP1;P1;durP2;ratioP2;P2;SDS_P1;SDS_P2;PMS_P1;PMS_P2;Temp;Humidity;BMP_temperature;BMP_pressure;BME280_temperature;BME280_humidity;BME280_pressure;Samples;Min_cycle;Max_cycle;Signal;HPM_P1;HPM_P2
2023/12/09 00:01:44;;;;;;;13.52;5.93;;;8.20;99.90;;;;;;5093836;27;20040;-66
2023/12/09 00:04:10;;;;;;;20.38;6.78;;;8.10;99.90;;;;;;5118985;27;20038;-66
2023/12/09 00:06:36;;;;;;;16.33;6.75;;;8.10;99.90;;;;;;5122999;27;20130;-66
2023/12/09 00:09:03;;;;;;;13.63;5.78;;;8.20;99.90;;;;;;5109165;27;20113;-65
2023/12/09 00:11:29;;;;;;;24.50;8.13;;;8.10;99.90;;;;;;5121435;27;20441;-65
2023/12/09 00:13:54;;;;;;;11.85;6.22;;;8.10;99.90;;;;;;5123803;27;20045;-66
2023/12/09 00:16:20;;;;;;;10.55;5.32;;;8.20;99.90;;;;;;5121354;27;20122;-66
2023/12/09 00:18:46;;;;;;;15.73;6.75;;;8.10;99.90;;;;;;5117435;27;20073;-66
2023/12/09 00:21:13;;;;;;;16.75;5.65;;;8.10;99.90;;;;;;5126259;27;20045;-66
2023/12/09 00:23:39;;;;;;;18.50;5.68;;;8.10;99.90;;;;;;5123951;27;20043;-66
2023/12/09 00:26:05;;;;;;;16.77;6.97;;;8.10;99.90;;;;;;5126162;27;20043;-66
2023/12/09 00:28:31;;;;;;;13.32;6.53;;;8.10;99.90;;;;;;5123719;27;20079;-66
2023/12/09 00:30:57;;;;;;;10.55;5.32;;;8.10;99.90;;;;;;5097419;27;20039;-66
2023/12/09 00:33:22;;;;;;;25.67;7.03;;;8.00;99.90;;;;;;5116392;27;20475;-66
2023/12/09 00:35:48;;;;;;;16.92;5.28;;;8.00;99.90;;;;;;5122406;27;20129;-66
2023/12/09 00:38:14;;;;;;;12.90;5.70;;;8.00;99.90;;;;;;5105216;27;20489;-66
2023/12/09 00:40:40;;;;;;;13.45;6.15;;;8.10;99.90;;;;;;5108983;27;20035;-66
2023/12/09 00:43:06;;;;;;;14.90;5.15;;;8.00;99.90;;;;;;5120045;27;20069;-66
2023/12/09 00:45:31;;;;;;;13.18;6.03;;;8.10;99.90;;;;;;5126527;27;20364;-66
2023/12/09 00:47:59;;;;;;;12.55;5.63;;;8.00;99.90;;;;;;5124396;27;20138;-66
2023/12/09 00:50:25;;;;;;;14.48;6.78;;;8.00;99.90;;;;;;5126116;27;20108;-66
2023/12/09 00:52:51;;;;;;;9.95;6.38;;;8.00;99.90;;;;;;5121803;27;20356;-65
2023/12/09 00:55:16;;;;;;;20.67;6.13;;;8.00;99.90;;;;;;5121579;27;20091;-66
2023/12/09 00:57:42;;;;;;;15.52;6.25;;;7.90;99.90;;;;;;5108495;27;20038;-66
2023/12/09 01:00:08;;;;;;;8.32;4.82;;;7.80;99.90;;;;;;5122038;27;20035;-66
2023/12/09 01:02:34;;;;;;;16.00;5.03;;;7.80;99.90;;;;;;5125229;27;20058;-66
2023/12/09 01:05:00;;;;;;;13.07;7.07;;;7.70;99.90;;;;;;5123124;27;20035;-66
2023/12/09 01:07:26;;;;;;;16.45;6.63;;;7.60;99.90;;;;;;5123566;27;20038;-66
2023/12/09 01:09:51;;;;;;;19.15;6.03;;;7.60;99.90;;;;;;5122469;27;20118;-66
2023/12/09 01:12:17;;;;;;;12.18;5.07;;;7.60;99.90;;;;;;5124817;27;20051;-66
2023/12/09 01:14:43;;;;;;;7.60;4.45;;;7.50;99.90;;;;;;5107985;27;20035;-66
2023/12/09 01:17:09;;;;;;;9.55;5.15;;;7.50;99.90;;;;;;5121927;27;20033;-65
2023/12/09 01:19:35;;;;;;;23.00;6.55;;;7.40;99.90;;;;;;5107396;27;20058;-66
2023/12/09 01:22:01;;;;;;;15.93;5.53;;;7.40;99.90;;;;;;5105540;27;20068;-66
2023/12/09 01:24:26;;;;;;;12.30;5.25;;;7.30;99.90;;;;;;5103457;27;20038;-66
2023/12/09 01:26:52;;;;;;;21.40;7.30;;;7.30;99.90;;;;;;5120582;27;20134;-66
2023/12/09 01:29:18;;;;;;;11.60;5.20;;;7.30;99.90;;;;;;5105811;27;20038;-66
2023/12/09 01:31:44;;;;;;;10.02;5.78;;;7.30;99.90;;;;;;5124062;27;20035;-66
2023/12/09 01:34:09;;;;;;;17.33;5.80;;;7.30;99.90;;;;;;5121347;27;20073;-66
2023/12/09 01:36:35;;;;;;;9.15;4.47;;;7.30;99.90;;;;;;5124572;27;20039;-66
2023/12/09 01:39:01;;;;;;;10.02;4.78;;;7.40;99.90;;;;;;5104225;27;20490;-66
2023/12/09 01:41:30;;;;;;;14.25;5.05;;;7.40;99.90;;;;;;5116379;27;20586;-66
2023/12/09 01:43:55;;;;;;;14.27;4.43;;;7.50;99.90;;;;;;5122372;27;20462;-66
2023/12/09 01:46:22;;;;;;;12.50;5.78;;;7.50;99.90;;;;;;5119557;27;20035;-66
2023/12/09 01:48:48;;;;;;;17.30;6.80;;;7.60;99.90;;;;;;5121539;27;20219;-66
2023/12/09 01:51:16;;;;;;;10.75;5.60;;;7.60;99.90;;;;;;5125135;27;20079;-66
2023/12/09 01:53:42;;;;;;;14.00;5.57;;;7.60;99.90;;;;;;5120732;27;20031;-66
2023/12/09 01:56:10;;;;;;;7.68;4.40;;;7.60;99.90;;;;;;5121926;27;20670;-66
2023/12/09 01:58:37;;;;;;;11.85;4.82;;;7.60;99.90;;;;;;5104123;27;20095;-66
2023/12/09 02:01:04;;;;;;;9.20;4.95;;;7.70;99.90;;;;;;5123354;27;20109;-66
2023/12/09 02:03:33;;;;;;;14.63;4.28;;;7.70;99.90;;;;;;5120372;27;20042;-66
2023/12/09 02:06:09;;;;;;;19.70;5.75;;;7.70;99.90;;;;;;5099704;27;20066;-66
2023/12/09 02:08:44;;;;;;;18.65;5.85;;;7.70;99.90;;;;;;5140529;27;20054;-66
2023/12/09 02:11:22;;;;;;;7.85;4.05;;;7.70;99.90;;;;;;5106817;27;20061;-66
2023/12/09 02:14:15;;;;;;;20.50;5.60;;;7.70;99.90;;;;;;5126985;27;20095;-66
2023/12/09 02:16:47;;;;;;;14.32;4.38;;;7.70;99.90;;;;;;5123850;27;20033;-66
2023/12/09 02:19:14;;;;;;;7.35;4.68;;;7.70;99.90;;;;;;5124094;27;20035;-66
2023/12/09 02:22:03;;;;;;;9.75;5.30;;;7.60;99.90;;;;;;5123674;27;20047;-66
2023/12/09 02:24:31;;;;;;;15.02;5.47;;;7.50;99.90;;;;;;5123706;27;20505;-67
2023/12/09 02:27:37;;;;;;;18.88;4.95;;;7.40;99.90;;;;;;5126728;27;20045;-66
2023/12/09 02:30:14;;;;;;;11.80;4.90;;;7.40;99.90;;;;;;5105690;27;20047;-66
2023/12/09 02:32:40;;;;;;;12.23;4.95;;;7.30;99.90;;;;;;5096709;27;20082;-66
2023/12/09 02:35:10;;;;;;;10.15;4.40;;;7.30;99.90;;;;;;5108532;27;20420;-66
2023/12/09 02:37:39;;;;;;;9.15;5.25;;;7.20;99.90;;;;;;5126086;27;20035;-66
2023/12/09 02:40:10;;;;;;;9.10;4.05;;;7.20;99.90;;;;;;5109239;27;20031;-66
2023/12/09 02:42:39;;;;;;;11.65;4.18;;;7.20;99.90;;;;;;5105698;27;20047;-65
2023/12/09 02:45:08;;;;;;;7.88;5.35;;;7.20;99.90;;;;;;5091235;27;20075;-66
2023/12/09 02:47:34;;;;;;;6.50;3.83;;;7.10;99.90;;;;;;5125608;27;20046;-66
2023/12/09 02:50:00;;;;;;;7.72;3.97;;;7.00;99.90;;;;;;5125158;27;20498;-66
2023/12/09 02:52:26;;;;;;;17.30;4.85;;;7.00;99.90;;;;;;5124200;27;20132;-67
2023/12/09 02:54:52;;;;;;;4.90;3.67;;;6.90;99.90;;;;;;5124046;27;20110;-66
2023/12/09 02:57:18;;;;;;;6.55;3.33;;;6.90;99.90;;;;;;5126891;27;20118;-66
2023/12/09 02:59:44;;;;;;;10.52;4.03;;;6.90;99.90;;;;;;5125174;27;20091;-67
2023/12/09 03:02:10;;;;;;;9.70;6.25;;;6.90;99.90;;;;;;5126784;27;20035;-66
2023/12/09 03:04:37;;;;;;;10.63;4.75;;;6.80;99.90;;;;;;5126067;27;20038;-66
2023/12/09 03:07:03;;;;;;;8.45;3.60;;;6.90;99.90;;;;;;5125337;27;20046;-66
2023/12/09 03:09:29;;;;;;;9.57;3.25;;;6.80;99.90;;;;;;5126994;27;20031;-66
2023/12/09 03:11:55;;;;;;;17.35;5.22;;;6.80;99.90;;;;;;5122404;27;20066;-66
2023/12/09 03:14:22;;;;;;;10.50;4.78;;;6.80;99.90;;;;;;5126888;27;20042;-66
2023/12/09 03:16:49;;;;;;;11.48;4.75;;;6.80;99.90;;;;;;5119330;27;20043;-65
2023/12/09 03:19:15;;;;;;;8.77;4.53;;;6.90;99.90;;;;;;5122243;27;20031;-66
2023/12/09 03:21:41;;;;;;;4.70;3.25;;;6.90;99.90;;;;;;5122488;27;20046;-67
2023/12/09 03:24:07;;;;;;;9.75;4.47;;;7.00;99.90;;;;;;5107805;27;20063;-66
2023/12/09 03:26:34;;;;;;;13.05;6.22;;;7.00;99.90;;;;;;5124682;27;20064;-65
2023/12/09 03:29:00;;;;;;;16.38;4.80;;;7.00;99.90;;;;;;5125392;27;20403;-66
2023/12/09 03:31:26;;;;;;;13.82;6.00;;;7.10;99.90;;;;;;5119736;27;20077;-66
2023/12/09 03:33:51;;;;;;;10.68;4.15;;;7.10;99.90;;;;;;5128884;27;20034;-66
2023/12/09 03:36:17;;;;;;;10.80;4.28;;;7.10;99.90;;;;;;5122862;27;20035;-66
2023/12/09 03:38:43;;;;;;;13.40;5.47;;;7.10;99.90;;;;;;5123512;27;20044;-66
2023/12/09 03:41:09;;;;;;;8.18;5.03;;;7.10;99.90;;;;;;5126804;27;20567;-66
2023/12/09 03:43:36;;;;;;;7.68;3.83;;;7.10;99.90;;;;;;5124771;27;20038;-67
2023/12/09 03:46:02;;;;;;;11.70;6.13;;;7.10;99.90;;;;;;5108190;27;20452;-66
2023/12/09 03:48:28;;;;;;;3.25;2.47;;;7.10;99.90;;;;;;5122758;27;20034;-66
2023/12/09 03:50:55;;;;;;;9.40;4.50;;;7.20;99.90;;;;;;5122462;27;20043;-66
2023/12/09 03:53:21;;;;;;;12.48;4.78;;;7.20;99.90;;;;;;5121319;27;20034;-66
2023/12/09 03:55:48;;;;;;;10.65;3.55;;;7.20;99.90;;;;;;5123242;27;20039;-66
2023/12/09 03:58:14;;;;;;;6.00;3.63;;;7.20;99.90;;;;;;5105221;27;20042;-67
2023/12/09 04:00:40;;;;;;;7.63;3.55;;;7.30;99.90;;;;;;5123496;27;20061;-66
2023/12/09 04:03:06;;;;;;;14.18;4.90;;;7.30;99.90;;;;;;5102537;27;20034;-67
2023/12/09 04:05:32;;;;;;;10.20;4.53;;;7.30;99.90;;;;;;5108152;27;20061;-66
2023/12/09 04:08:01;;;;;;;3.47;3.05;;;7.30;99.90;;;;;;5141189;27;20046;-66
2023/12/09 04:10:27;;;;;;;14.00;4.30;;;7.30;99.90;;;;;;5125131;27;20518;-65
2023/12/09 04:12:53;;;;;;;5.32;3.22;;;7.30;99.90;;;;;;5121309;27;20042;-66
2023/12/09 04:15:19;;;;;;;12.20;4.63;;;7.30;99.90;;;;;;5117942;27;20623;-66
2023/12/09 04:17:46;;;;;;;5.28;3.83;;;7.40;99.90;;;;;;5123051;27;20083;-66
2023/12/09 04:20:12;;;;;;;9.55;3.42;;;7.40;99.90;;;;;;5124238;27;20092;-66
2023/12/09 04:22:38;;;;;;;5.38;3.58;;;7.40;99.90;;;;;;5124460;27;20398;-66
2023/12/09 04:25:05;;;;;;;8.70;3.65;;;7.40;99.90;;;;;;5122621;27;20039;-66
2023/12/09 04:27:32;;;;;;;10.18;3.60;;;7.50;99.90;;;;;;5122881;27;20042;-66
2023/12/09 04:29:58;;;;;;;10.32;5.78;;;7.50;99.90;;;;;;5122538;27;20039;-66
2023/12/09 04:32:29;;;;;;;10.18;3.92;;;7.50;99.90;;;;;;5099462;27;20035;-66
2023/12/09 04:34:57;;;;;;;11.32;3.75;;;7.50;99.90;;;;;;5101189;27;20414;-66
2023/12/09 04:37:26;;;;;;;5.38;3.58;;;7.60;99.90;;;;;;5104494;27;20034;-67
2023/12/09 04:39:53;;;;;;;9.10;4.50;;;7.60;99.90;;;;;;5104377;27;20039;-66
2023/12/09 04:42:19;;;;;;;8.65;3.75;;;7.60;99.90;;;;;;5106221;27;20040;-66
2023/12/09 04:44:45;;;;;;;8.43;2.75;;;7.60;99.90;;;;;;5105784;27;20054;-66
2023/12/09 04:47:11;;;;;;;7.82;4.03;;;7.60;99.90;;;;;;5122851;27;20042;-66
2023/12/09 04:49:37;;;;;;;15.23;5.13;;;7.60;99.90;;;;;;5128281;27;20050;-66
2023/12/09 04:52:04;;;;;;;5.72;4.65;;;7.60;99.90;;;;;;5115844;27;20423;-67
2023/12/09 04:54:36;;;;;;;7.78;3.42;;;7.60;99.90;;;;;;5140897;27;20053;-66
2023/12/09 04:57:02;;;;;;;10.27;2.75;;;7.70;99.90;;;;;;5120443;27;20057;-67
2023/12/09 04:59:29;;;;;;;3.50;2.30;;;7.60;99.90;;;;;;5121444;27;20031;-66
2023/12/09 05:02:46;;;;;;;11.07;4.00;;;7.60;99.90;;;;;;5121449;27;20083;-67
2023/12/09 05:05:15;;;;;;;6.90;3.08;;;7.60;99.90;;;;;;5121345;27;20544;-66
2023/12/09 05:07:42;;;;;;;6.65;3.63;;;7.60;99.90;;;;;;5123363;27;20348;-66
2023/12/09 05:10:08;;;;;;;13.80;4.22;;;7.60;99.90;;;;;;5123371;27;20042;-66
2023/12/09 05:12:34;;;;;;;11.18;3.20;;;7.60;99.90;;;;;;5123248;27;20115;-66
2023/12/09 05:14:59;;;;;;;4.43;3.13;;;7.60;99.90;;;;;;5103945;27;20070;-69
2023/12/09 05:17:25;;;;;;;9.05;3.33;;;7.60;99.90;;;;;;5124810;27;20390;-66
2023/12/09 05:19:52;;;;;;;5.25;3.20;;;7.60;99.90;;;;;;5104878;27;20031;-74
2023/12/09 05:22:21;;;;;;;10.35;4.82;;;7.60;99.90;;;;;;5106190;27;20043;-65
2023/12/09 05:25:26;;;;;;;5.90;3.45;;;7.60;99.90;;;;;;5099037;27;20070;-67
2023/12/09 05:28:52;;;;;;;8.10;4.03;;;7.50;99.90;;;;;;5123065;27;20479;-66
2023/12/09 05:32:10;;;;;;;3.28;2.42;;;7.50;99.90;;;;;;5131856;27;20077;-66
2023/12/09 05:34:56;;;;;;;5.30;3.42;;;7.40;99.90;;;;;;5098784;27;20086;-66
2023/12/09 05:51:48;;;;;;;3.78;2.88;;;7.30;99.90;;;;;;5134870;27;20180;-66
2023/12/09 06:01:36;;;;;;;13.90;2.60;;;7.20;99.90;;;;;;5136948;27;20080;-65
2023/12/09 06:08:03;;;;;;;2.40;1.27;;;7.10;99.90;;;;;;5135680;27;20079;-66
2023/12/09 06:18:09;;;;;;;10.43;2.85;;;7.30;99.90;;;;;;5105609;28;20107;-66
2023/12/09 06:35:37;;;;;;;5.32;2.80;;;7.30;99.90;;;;;;5107465;28;20070;-65
2023/12/09 06:38:03;;;;;;;2.70;1.77;;;7.30;99.90;;;;;;5091066;28;20089;-66
2023/12/09 06:40:29;;;;;;;2.58;1.45;;;7.20;99.90;;;;;;5087028;28;20031;-65
2023/12/09 06:42:55;;;;;;;2.15;1.63;;;7.30;99.90;;;;;;5107356;28;20043;-65
2023/12/09 06:45:21;;;;;;;3.25;1.95;;;7.30;99.90;;;;;;5108145;28;20521;-64
2023/12/09 06:47:47;;;;;;;7.60;3.25;;;7.30;99.90;;;;;;5091051;28;20035;-66
2023/12/09 06:50:13;;;;;;;6.63;4.03;;;7.30;99.90;;;;;;5104185;28;20824;-66
2023/12/09 06:52:39;;;;;;;6.43;2.85;;;7.30;99.90;;;;;;5104540;28;20111;-66
2023/12/09 06:55:05;;;;;;;5.07;3.63;;;7.30;99.90;;;;;;5108333;28;20028;-66
2023/12/09 06:57:31;;;;;;;8.98;2.63;;;7.30;99.90;;;;;;5091236;28;20044;-66
2023/12/09 06:59:57;;;;;;;6.40;3.58;;;7.30;99.90;;;;;;5107317;28;20100;-66
2023/12/09 07:02:23;;;;;;;2.80;2.50;;;7.30;99.90;;;;;;5103527;28;20028;-65
2023/12/09 07:04:48;;;;;;;4.00;2.30;;;7.30;99.90;;;;;;5093791;28;20055;-66
2023/12/09 07:07:14;;;;;;;5.55;2.45;;;7.30;99.90;;;;;;5112875;28;20069;-66
2023/12/09 07:09:40;;;;;;;27.40;3.08;;;7.30;99.90;;;;;;5111955;28;20545;-66
2023/12/09 07:12:06;;;;;;;2.78;1.63;;;7.30;99.90;;;;;;5125095;27;20046;-66
2023/12/09 07:14:32;;;;;;;13.07;3.40;;;7.30;99.90;;;;;;5127757;27;20070;-66
2023/12/09 07:16:57;;;;;;;1.52;1.08;;;7.30;99.90;;;;;;5124335;27;20042;-65
2023/12/09 07:19:23;;;;;;;7.40;1.80;;;7.30;99.90;;;;;;5124660;27;20046;-66
2023/12/09 07:21:50;;;;;;;6.50;3.60;;;7.30;99.90;;;;;;5126125;27;20470;-66
2023/12/09 07:24:16;;;;;;;3.60;2.20;;;7.30;99.90;;;;;;5120055;27;20047;-64
2023/12/09 07:26:42;;;;;;;4.03;2.38;;;7.30;99.90;;;;;;5106562;27;20047;-65
2023/12/09 07:29:09;;;;;;;6.50;2.08;;;7.30;99.90;;;;;;5106782;27;20041;-65
2023/12/09 07:31:35;;;;;;;3.70;2.13;;;7.30;99.90;;;;;;5121362;27;20070;-66
2023/12/09 07:34:00;;;;;;;12.38;3.92;;;7.40;99.90;;;;;;5122293;27;20514;-67
2023/12/09 07:36:26;;;;;;;12.43;2.70;;;7.30;99.90;;;;;;5124316;27;20038;-66
2023/12/09 07:38:52;;;;;;;8.15;3.63;;;7.40;99.90;;;;;;5123798;27;20030;-67
2023/12/09 07:41:18;;;;;;;9.27;2.22;;;7.40;99.90;;;;;;5100837;28;20035;-66
2023/12/09 07:43:44;;;;;;;7.95;2.72;;;7.40;99.90;;;;;;5123259;27;20042;-67
2023/12/09 07:46:09;;;;;;;10.85;1.55;;;7.40;99.90;;;;;;5125888;27;20154;-66
2023/12/09 07:48:35;;;;;;;12.23;3.13;;;7.40;99.90;;;;;;5123655;27;20038;-66
2023/12/09 07:51:01;;;;;;;3.40;2.42;;;7.40;99.90;;;;;;5123737;27;20130;-68
2023/12/09 07:53:27;;;;;;;14.02;3.80;;;7.40;99.90;;;;;;5123034;27;20109;-68
2023/12/09 07:55:53;;;;;;;3.92;1.77;;;7.40;99.90;;;;;;5123209;27;20130;-66
2023/12/09 07:58:19;;;;;;;2.17;1.63;;;7.40;99.90;;;;;;5121620;27;20041;-67
2023/12/09 08:00:45;;;;;;;1.80;1.40;;;7.50;99.90;;;;;;5126303;27;20428;-67
2023/12/09 08:03:11;;;;;;;1.90;1.30;;;7.50;99.90;;;;;;5119512;27;20043;-68
2023/12/09 08:05:38;;;;;;;12.00;2.90;;;7.50;99.90;;;;;;5098679;27;20058;-66
2023/12/09 08:08:04;;;;;;;4.70;2.15;;;7.50;99.90;;;;;;5102392;27;20031;-66
2023/12/09 08:10:30;;;;;;;4.53;2.20;;;7.50;99.90;;;;;;5115807;27;20046;-68
2023/12/09 08:12:56;;;;;;;14.18;2.22;;;7.50;99.90;;;;;;5110269;28;20092;-67
2023/12/09 08:15:22;;;;;;;5.63;2.45;;;7.50;99.90;;;;;;5109261;28;20089;-67
2023/12/09 08:17:48;;;;;;;2.83;2.00;;;7.50;99.90;;;;;;5107029;28;20119;-67
2023/12/09 08:20:14;;;;;;;6.47;3.05;;;7.50;99.90;;;;;;5093477;28;20548;-66
2023/12/09 08:22:39;;;;;;;3.88;1.90;;;7.50;99.90;;;;;;5110492;28;20038;-67
2023/12/09 08:25:07;;;;;;;6.88;1.73;;;7.50;99.90;;;;;;5110701;28;20042;-68
2023/12/09 08:27:33;;;;;;;5.15;2.55;;;7.50;99.90;;;;;;5111129;28;20114;-66
2023/12/09 08:29:59;;;;;;;3.55;1.42;;;7.40;99.90;;;;;;5110498;28;20074;-68
2023/12/09 08:32:25;;;;;;;9.15;3.25;;;7.50;99.90;;;;;;5105506;28;20530;-68
2023/12/09 08:34:51;;;;;;;7.70;2.30;;;7.40;99.90;;;;;;5092908;28;20123;-67
2023/12/09 08:37:24;;;;;;;7.25;2.30;;;7.40;99.90;;;;;;5109597;28;20035;-66
2023/12/09 08:39:55;;;;;;;10.63;2.45;;;7.40;99.90;;;;;;5091806;28;20027;-67
2023/12/09 08:42:23;;;;;;;2.58;1.83;;;7.40;99.90;;;;;;5108747;28;20046;-68
2023/12/09 08:44:49;;;;;;;3.63;2.50;;;7.40;99.90;;;;;;5109713;28;20062;-66
2023/12/09 08:47:15;;;;;;;4.85;1.80;;;7.40;99.90;;;;;;5108843;28;20049;-66
2023/12/09 08:49:41;;;;;;;3.85;2.25;;;7.40;99.90;;;;;;5092684;28;20039;-67
2023/12/09 08:52:07;;;;;;;4.47;1.92;;;7.40;99.90;;;;;;5109724;28;20039;-68
2023/12/09 08:54:34;;;;;;;7.78;2.38;;;7.40;99.90;;;;;;5107969;28;20056;-67
2023/12/09 08:57:03;;;;;;;3.20;1.42;;;7.40;99.90;;;;;;5092219;28;20031;-67
2023/12/09 08:59:28;;;;;;;5.07;1.92;;;7.40;99.90;;;;;;5092813;28;20146;-66
2023/12/09 09:01:54;;;;;;;6.68;2.33;;;7.40;99.90;;;;;;5109645;28;20523;-66
2023/12/09 09:04:22;;;;;;;4.95;0.88;;;7.40;99.90;;;;;;5105411;28;20369;-66
2023/12/09 09:06:48;;;;;;;3.40;1.95;;;7.40;99.90;;;;;;5108162;28;20043;-66
2023/12/09 09:09:13;;;;;;;6.22;2.22;;;7.40;99.90;;;;;;5109177;28;20089;-65
2023/12/09 09:11:39;;;;;;;3.78;2.25;;;7.40;99.90;;;;;;5120550;27;20464;-65
2023/12/09 09:14:05;;;;;;;5.05;2.20;;;7.40;99.90;;;;;;5106211;27;20042;-66
2023/12/09 09:16:31;;;;;;;1.60;0.93;;;7.50;99.90;;;;;;5124720;27;20066;-65
2023/12/09 09:18:57;;;;;;;2.90;1.42;;;7.40;99.90;;;;;;5122500;27;20035;-66
2023/12/09 09:21:23;;;;;;;9.65;3.33;;;7.40;99.90;;;;;;5124335;27;20482;-65
2023/12/09 09:23:49;;;;;;;4.20;2.15;;;7.50;99.90;;;;;;5118419;27;20035;-66
2023/12/09 09:26:15;;;;;;;3.10;1.50;;;7.50;99.90;;;;;;5124377;27;20127;-65
2023/12/09 09:28:40;;;;;;;5.20;2.20;;;7.50;99.90;;;;;;5117976;27;20070;-67
2023/12/09 09:31:18;;;;;;;2.92;1.67;;;7.50;99.90;;;;;;5119766;27;20072;-67
2023/12/09 09:33:44;;;;;;;1.58;1.13;;;7.50;99.90;;;;;;5118052;27;20042;-66
2023/12/09 09:36:10;;;;;;;4.65;1.55;;;7.50;99.90;;;;;;5122163;27;20035;-66
2023/12/09 09:38:36;;;;;;;3.15;2.15;;;7.40;99.90;;;;;;5122735;27;20119;-68
2023/12/09 09:41:09;;;;;;;6.22;1.00;;;7.50;99.90;;;;;;5120641;27;20114;-67
2023/12/09 09:43:43;;;;;;;3.28;2.25;;;7.50;99.90;;;;;;5106716;27;20042;-67
2023/12/09 09:46:12;;;;;;;4.25;1.95;;;7.50;99.90;;;;;;5121889;27;20043;-68
2023/12/09 09:48:39;;;;;;;6.53;2.53;;;7.50;99.90;;;;;;5119670;27;20043;-66
2023/12/09 09:51:08;;;;;;;5.88;0.90;;;7.50;99.90;;;;;;5115811;27;20074;-66
2023/12/09 09:53:45;;;;;;;6.43;1.67;;;7.60;99.90;;;;;;5120547;27;20039;-66
2023/12/09 09:56:11;;;;;;;2.97;1.58;;;7.60;99.90;;;;;;5112155;27;20049;-66
2023/12/09 09:58:37;;;;;;;8.02;3.30;;;7.60;99.90;;;;;;5116953;27;20043;-67
2023/12/09 10:01:05;;;;;;;7.70;2.25;;;7.60;99.90;;;;;;5106797;27;20428;-67
2023/12/09 10:03:31;;;;;;;1.55;1.42;;;7.60;99.90;;;;;;5102717;27;20114;-66
2023/12/09 10:05:59;;;;;;;5.32;1.85;;;7.60;99.90;;;;;;5124024;28;20570;-67
2023/12/09 10:08:24;;;;;;;7.03;2.42;;;7.60;99.90;;;;;;5123189;27;20115;-67
2023/12/09 10:10:51;;;;;;;6.88;1.92;;;7.70;99.90;;;;;;5114633;28;20105;-67
2023/12/09 10:13:17;;;;;;;6.55;1.60;;;7.60;99.90;;;;;;5107843;28;20051;-66
2023/12/09 10:15:43;;;;;;;2.33;1.45;;;7.60;99.90;;;;;;5108545;28;20372;-66
2023/12/09 10:18:24;;;;;;;3.83;1.05;;;7.60;99.90;;;;;;5108249;28;20062;-67
2023/12/09 10:20:50;;;;;;;4.60;2.67;;;7.60;99.90;;;;;;5108463;28;20042;-66
2023/12/09 10:23:16;;;;;;;5.47;1.70;;;7.60;99.90;;;;;;5108371;28;20131;-66
2023/12/09 10:25:42;;;;;;;2.35;1.10;;;7.60;99.90;;;;;;5091080;28;20122;-66
2023/12/09 10:28:08;;;;;;;1.23;1.10;;;7.60;99.90;;;;;;5107863;28;20043;-67
2023/12/09 10:30:35;;;;;;;2.13;0.77;;;7.70;99.90;;;;;;5105306;28;20400;-67
2023/12/09 10:33:01;;;;;;;6.97;1.80;;;7.70;99.90;;;;;;5105780;28;20169;-66
2023/12/09 10:35:28;;;;;;;4.68;1.05;;;7.70;99.90;;;;;;5086183;28;20659;-67
2023/12/09 10:37:54;;;;;;;0.82;0.75;;;7.70;99.90;;;;;;5108081;28;20051;-67
2023/12/09 10:40:21;;;;;;;4.43;1.42;;;7.70;99.90;;;;;;5111320;28;20164;-66
2023/12/09 10:42:47;;;;;;;5.15;1.15;;;7.80;99.90;;;;;;5111711;28;20092;-66
2023/12/09 10:45:16;;;;;;;2.60;0.95;;;7.80;99.90;;;;;;5094402;28;20582;-66
2023/12/09 10:47:42;;;;;;;2.55;1.20;;;7.80;99.90;;;;;;5110966;28;20050;-67
2023/12/09 10:50:09;;;;;;;11.32;1.75;;;7.80;99.90;;;;;;5111502;28;20096;-67
2023/12/09 10:52:36;;;;;;;2.28;1.08;;;7.80;99.90;;;;;;5094486;28;20043;-66
2023/12/09 10:55:01;;;;;;;5.07;1.05;;;7.90;99.90;;;;;;5102707;28;20051;-66
2023/12/09 10:57:28;;;;;;;6.40;1.67;;;7.80;99.90;;;;;;5109917;28;20043;-66
2023/12/09 10:59:55;;;;;;;2.35;0.82;;;7.80;99.90;;;;;;5093445;28;20067;-67
2023/12/09 11:02:22;;;;;;;8.75;1.25;;;7.80;99.90;;;;;;5113306;27;20043;-66
2023/12/09 11:04:50;;;;;;;6.03;1.40;;;7.80;99.90;;;;;;5111548;27;20446;-66
2023/12/09 11:07:17;;;;;;;0.43;0.40;;;7.80;99.90;;;;;;5110580;28;20048;-66
2023/12/09 11:09:44;;;;;;;1.98;0.82;;;7.80;99.90;;;;;;5094037;28;20039;-66
2023/12/09 11:12:10;;;;;;;2.67;0.82;;;7.90;99.90;;;;;;5091019;28;20044;-66
2023/12/09 11:14:37;;;;;;;1.55;0.75;;;7.90;99.90;;;;;;5110008;28;20100;-66
2023/12/09 11:17:03;;;;;;;2.58;1.65;;;7.90;99.90;;;;;;5112215;27;20391;-66
2023/12/09 11:19:29;;;;;;;3.58;1.05;;;7.90;99.90;;;;;;5115167;27;20050;-66
2023/12/09 11:21:55;;;;;;;3.13;0.93;;;7.90;99.90;;;;;;5094294;28;20036;-68
2023/12/09 11:24:30;;;;;;;1.67;1.17;;;7.90;99.90;;;;;;5110681;28;20441;-67
2023/12/09 11:26:55;;;;;;;1.77;1.20;;;7.80;99.90;;;;;;5109783;28;20067;-66
2023/12/09 11:29:21;;;;;;;5.07;0.80;;;7.90;99.90;;;;;;5109660;28;20074;-65
2023/12/09 11:31:49;;;;;;;1.48;1.30;;;7.90;99.90;;;;;;5106520;28;20491;-66
2023/12/09 11:34:19;;;;;;;3.47;1.02;;;7.90;99.90;;;;;;5110580;28;20116;-66
2023/12/09 11:36:46;;;;;;;1.20;0.47;;;7.90;99.90;;;;;;5108348;28;20043;-65
2023/12/09 11:39:17;;;;;;;3.28;0.60;;;7.80;99.90;;;;;;5107523;28;20537;-68
2023/12/09 11:41:44;;;;;;;5.00;2.03;;;7.80;99.90;;;;;;5108531;28;20036;-67
2023/12/09 11:44:10;;;;;;;4.07;1.38;;;7.80;99.90;;;;;;5109982;28;20089;-66
2023/12/09 11:46:37;;;;;;;1.77;1.05;;;7.80;99.90;;;;;;5110896;28;21352;-67
2023/12/09 11:49:05;;;;;;;4.78;1.40;;;7.80;99.90;;;;;;5110751;28;20425;-66
2023/12/09 11:51:32;;;;;;;6.38;1.70;;;7.80;99.90;;;;;;5104441;28;20039;-66
2023/12/09 11:54:09;;;;;;;3.35;1.17;;;7.90;99.90;;;;;;5110448;28;20043;-68
2023/12/09 11:56:37;;;;;;;2.03;1.20;;;7.90;99.90;;;;;;5092997;28;20040;-68
2023/12/09 11:59:05;;;;;;;1.67;0.60;;;7.90;99.90;;;;;;5110307;28;20075;-68
2023/12/09 12:01:32;;;;;;;1.27;0.63;;;7.90;99.90;;;;;;5092232;28;20403;-68
2023/12/09 12:03:58;;;;;;;1.92;0.57;;;7.90;99.90;;;;;;5093297;28;20035;-66
2023/12/09 12:06:24;;;;;;;1.80;0.82;;;8.00;99.90;;;;;;5110006;28;20369;-67
2023/12/09 12:08:54;;;;;;;3.05;1.08;;;8.00;99.90;;;;;;5109709;28;20039;-66
2023/12/09 12:11:24;;;;;;;0.65;0.45;;;8.00;99.90;;;;;;5112941;27;20723;-68
2023/12/09 12:13:52;;;;;;;7.22;0.93;;;8.00;99.90;;;;;;5114061;27;20580;-66
2023/12/09 12:16:19;;;;;;;1.52;0.77;;;8.00;99.90;;;;;;5114827;27;20114;-66
2023/12/09 12:18:46;;;;;;;4.13;0.80;;;8.00;99.90;;;;;;5109790;27;20043;-67
2023/12/09 12:21:12;;;;;;;1.63;0.60;;;7.90;99.90;;;;;;5100223;27;20501;-67
2023/12/09 12:23:39;;;;;;;3.60;1.05;;;8.00;99.90;;;;;;5114938;27;20043;-68
2023/12/09 12:26:05;;;;;;;4.30;1.40;;;8.00;99.90;;;;;;5116011;27;20113;-69
2023/12/09 12:28:31;;;;;;;4.07;0.88;;;8.00;99.90;;;;;;5117742;27;20079;-67
2023/12/09 12:31:01;;;;;;;0.77;0.50;;;8.00;99.90;;;;;;5118525;27;20109;-67
2023/12/09 12:33:31;;;;;;;2.63;0.80;;;8.00;99.90;;;;;;5115550;27;20031;-66
2023/12/09 12:35:58;;;;;;;6.15;1.13;;;8.00;99.90;;;;;;5112534;27;20038;-67
2023/12/09 12:38:25;;;;;;;1.17;0.30;;;7.90;99.90;;;;;;5120865;27;20053;-66
2023/12/09 12:40:53;;;;;;;0.75;0.57;;;7.90;99.90;;;;;;5117274;27;20049;-67
2023/12/09 12:43:19;;;;;;;2.67;0.77;;;7.90;99.90;;;;;;5121049;27;20039;-67
2023/12/09 12:45:52;;;;;;;4.35;1.13;;;8.00;99.90;;;;;;5121675;27;20522;-66
2023/12/09 12:48:19;;;;;;;1.17;0.57;;;7.90;99.90;;;;;;5117009;27;20430;-66
2023/12/09 12:54:26;;;;;;;2.05;0.98;;;7.90;99.90;;;;;;5128247;27;20677;-67
2023/12/09 12:56:52;;;;;;;1.08;0.47;;;8.00;99.90;;;;;;5101318;27;20103;-66
2023/12/09 12:59:18;;;;;;;2.42;0.75;;;8.00;99.90;;;;;;5120481;27;20039;-66
2023/12/09 13:01:43;;;;;;;5.10;1.00;;;8.00;99.90;;;;;;5118072;27;20034;-67
2023/12/09 13:04:09;;;;;;;1.85;0.85;;;8.10;99.90;;;;;;5117366;27;20039;-66
2023/12/09 13:06:35;;;;;;;2.13;0.77;;;8.00;99.90;;;;;;5117715;27;20744;-65
2023/12/09 13:09:03;;;;;;;6.03;0.82;;;8.00;99.90;;;;;;5102111;27;20054;-66
2023/12/09 13:11:30;;;;;;;3.15;1.00;;;7.90;99.90;;;;;;5098488;27;20104;-66
2023/12/09 13:13:55;;;;;;;1.95;0.95;;;7.90;99.90;;;;;;5116153;27;20087;-65
2023/12/09 13:16:21;;;;;;;4.45;0.90;;;7.90;99.90;;;;;;5099573;27;20027;-65
2023/12/09 13:18:48;;;;;;;1.00;0.57;;;7.90;99.90;;;;;;5123299;27;20092;-66
2023/12/09 13:21:13;;;;;;;1.83;1.05;;;7.80;99.90;;;;;;5111548;27;20816;-65
2023/12/09 13:23:39;;;;;;;7.85;1.25;;;7.80;99.90;;;;;;5106420;27;20055;-65
2023/12/09 13:26:06;;;;;;;3.60;0.98;;;7.70;99.90;;;;;;5101546;27;20039;-65
2023/12/09 13:28:32;;;;;;;3.85;1.02;;;7.70;99.90;;;;;;5114206;27;20092;-65
2023/12/09 13:30:57;;;;;;;2.10;1.00;;;7.70;99.90;;;;;;5119024;27;20475;-65
2023/12/09 13:33:23;;;;;;;6.55;1.13;;;7.60;99.90;;;;;;5095867;27;20031;-64
2023/12/09 13:35:49;;;;;;;0.93;0.57;;;7.60;99.90;;;;;;5097244;27;20097;-67
2023/12/09 13:38:16;;;;;;;6.30;1.35;;;7.60;99.90;;;;;;5114413;27;20038;-66
2023/12/09 13:40:46;;;;;;;1.75;0.80;;;7.60;99.90;;;;;;5112879;27;20035;-67
2023/12/09 13:43:12;;;;;;;2.50;1.20;;;7.60;99.90;;;;;;5103285;27;20043;-68
2023/12/09 13:45:38;;;;;;;5.88;1.35;;;7.60;99.90;;;;;;5099893;27;20480;-67
2023/12/09 13:48:04;;;;;;;2.88;1.10;;;7.50;99.90;;;;;;5101116;28;20096;-66